Time;durP1;ratioP1;P1;durP2;ratioP2;P2;SDS_P1;SDS_P2;PMS_P1;PMS_P2;Temp;Humidity;BMP_temperature;BMP_pressure;BME280_temperature;BME280_humidity;BME280_pressure;Samples;Min_cycle;Max_cycle;Signal;HPM_P1;HPM_P2
2022/04/16 00:00:55;;;;;;;;;;;;;;;20.23;57.84;98716.31;2083161;28;19956;-53
2022/04/16 00:01:56;;;;;;;;;;;;;;;20.25;58.07;98716.94;2087285;28;19925;-53
2022/04/16 00:02:57;;;;;;;;;;;;;;;20.26;58.02;98721.28;2085823;28;19925;-54
2022/04/16 00:03:58;;;;;;;;;;;;;;;20.25;57.77;98711.56;2084563;28;20024;-55
2022/04/16 00:04:59;;;;;;;;;;;;;;;20.26;57.78;98717.75;2086100;28;19924;-53
2022/04/16 00:06:00;;;;;;;;;;;;;;;20.25;57.66;98714.25;2086400;28;19928;-51
2022/04/16 00:07:01;;;;;;;;;;;;;;;20.25;57.87;98714.25;2087814;28;20414;-54
2022/04/16 00:08:08;;;;;;;;;;;;;;;20.23;57.46;98710.94;2085718;28;20031;-53
2022/04/16 00:09:09;;;;;;;;;;;;;;;20.24;58.02;98706.38;2086898;28;20374;-52
2022/04/16 00:10:10;;;;;;;;;;;;;;;20.24;57.86;98709.06;2083597;28;19977;-50
2022/04/16 00:11:12;;;;;;;;;;;;;;;20.22;57.59;98706.56;2084162;28;20897;-52
2022/04/16 00:12:13;;;;;;;;;;;;;;;20.21;58.04;98704.91;2083941;28;20046;-50
2022/04/16 00:13:14;;;;;;;;;;;;;;;20.22;57.57;98706.56;2089867;28;19936;-53
2022/04/16 00:14:20;;;;;;;;;;;;;;;20.23;57.80;98699.34;2088196;28;19935;-49
2022/04/16 00:15:21;;;;;;;;;;;;;;;20.23;57.59;98697.47;2086896;28;19931;-49
2022/04/16 00:16:24;;;;;;;;;;;;;;;20.22;57.85;98693.09;2085583;28;19939;-54
2022/04/16 00:17:25;;;;;;;;;;;;;;;20.22;57.65;98687.72;2084717;28;19964;-50
2022/04/16 00:18:27;;;;;;;;;;;;;;;20.21;57.79;98690.63;2086225;28;20005;-53
2022/04/16 00:19:27;;;;;;;;;;;;;;;20.22;57.96;98695.78;2084096;28;19932;-47
2022/04/16 00:20:29;;;;;;;;;;;;;;;20.22;57.79;98686.88;2086614;28;19925;-54
2022/04/16 00:21:30;;;;;;;;;;;;;;;20.21;57.63;98688.75;2085642;28;19925;-55
2022/04/16 00:22:32;;;;;;;;;;;;;;;20.21;57.68;98677.16;2086647;28;19958;-50
2022/04/16 00:23:32;;;;;;;;;;;;;;;20.23;57.55;98688.56;2088445;28;19991;-51
2022/04/16 00:24:34;;;;;;;;;;;;;;;20.21;57.71;98688.75;2087555;28;19928;-49
2022/04/16 00:25:35;;;;;;;;;;;;;;;20.19;57.46;98682.75;2084178;28;19921;-55
2022/04/16 00:26:40;;;;;;;;;;;;;;;20.18;57.99;98674.91;2084798;28;19924;-53
2022/04/16 00:27:41;;;;;;;;;;;;;;;20.19;57.81;98681.94;2086385;28;22044;-53
2022/04/16 00:28:42;;;;;;;;;;;;;;;20.18;58.14;98675.72;2082339;28;19931;-51
2022/04/16 00:29:43;;;;;;;;;;;;;;;20.17;57.97;98671.38;2088547;28;19924;-53
2022/04/16 00:30:44;;;;;;;;;;;;;;;20.18;57.83;98674.91;2085667;28;19990;-53
2022/04/16 00:31:46;;;;;;;;;;;;;;;20.19;57.74;98661.22;2084064;28;20412;-52
2022/04/16 00:32:51;;;;;;;;;;;;;;;20.19;57.69;98663.91;2086472;28;19951;-55
2022/04/16 00:33:52;;;;;;;;;;;;;;;20.20;57.86;98662.88;2086460;28;19987;-54
2022/04/16 00:34:53;;;;;;;;;;;;;;;20.20;57.62;98662.06;2085020;28;20341;-55
2022/04/16 00:35:54;;;;;;;;;;;;;;;20.20;57.87;98665.56;2087710;28;19928;-50
2022/04/16 00:36:55;;;;;;;;;;;;;;;20.19;57.62;98655.81;2086845;28;19936;-52
2022/04/16 00:37:56;;;;;;;;;;;;;;;20.17;57.50;98663.31;2084359;28;19924;-49
2022/04/16 00:38:58;;;;;;;;;;;;;;;20.19;57.64;98663.09;2084358;28;20632;-54
2022/04/16 00:39:58;;;;;;;;;;;;;;;20.19;57.65;98663.91;2083992;28;19982;-51
2022/04/16 00:41:02;;;;;;;;;;;;;;;20.18;57.63;98659.56;2084494;28;19955;-56
2022/04/16 00:42:03;;;;;;;;;;;;;;;20.17;57.54;98655.22;2083605;28;19928;-51
2022/04/16 00:43:06;;;;;;;;;;;;;;;20.16;57.45;98655.44;2089325;28;19928;-52
2022/04/16 00:44:06;;;;;;;;;;;;;;;20.16;57.70;98652.75;2087345;28;19927;-51
2022/04/16 00:45:08;;;;;;;;;;;;;;;20.15;57.42;98654.59;2085396;28;19928;-54
2022/04/16 00:46:09;;;;;;;;;;;;;;;20.17;57.59;98655.22;2086598;28;19921;-54
2022/04/16 00:47:12;;;;;;;;;;;;;;;20.17;57.55;98657.06;2086404;28;19956;-51
2022/04/16 00:48:13;;;;;;;;;;;;;;;20.16;57.51;98658.94;2085542;28;19967;-50
2022/04/16 00:49:14;;;;;;;;;;;;;;;20.14;57.42;98652.13;2086304;28;19928;-55
2022/04/16 00:50:15;;;;;;;;;;;;;;;20.13;57.39;98648.59;2084875;28;19932;-52
2022/04/16 00:51:16;;;;;;;;;;;;;;;20.15;57.59;98654.59;2085143;28;20017;-50
2022/04/16 00:52:17;;;;;;;;;;;;;;;20.16;57.63;98652.75;2086568;28;19925;-50
2022/04/16 00:53:19;;;;;;;;;;;;;;;20.16;57.74;98658.13;2085865;28;19927;-53
2022/04/16 00:54:19;;;;;;;;;;;;;;;20.15;57.44;98649.22;2084167;28;19928;-52
2022/04/16 00:55:21;;;;;;;;;;;;;;;20.15;57.39;98649.22;2083492;28;20576;-47
2022/04/16 00:56:22;;;;;;;;;;;;;;;20.14;57.43;98644.03;2084979;28;19973;-56
2022/04/16 00:57:23;;;;;;;;;;;;;;;20.13;57.45;98645.91;2083182;28;20020;-46
2022/04/16 00:58:25;;;;;;;;;;;;;;;20.14;57.57;98644.03;2084635;28;19935;-47
2022/04/16 00:59:25;;;;;;;;;;;;;;;20.15;57.48;98643.03;2087687;28;19924;-49
2022/04/16 01:00:27;;;;;;;;;;;;;;;20.14;57.51;98636.78;2084639;28;20918;-50
2022/04/16 01:01:27;;;;;;;;;;;;;;;20.15;57.44;98646.53;2086158;28;19928;-51
2022/04/16 01:02:30;;;;;;;;;;;;;;;20.14;57.64;98639.47;2085087;28;19931;-47
2022/04/16 01:03:32;;;;;;;;;;;;;;;20.14;57.60;98642.16;2080238;28;19924;-49
2022/04/16 01:04:32;;;;;;;;;;;;;;;20.16;57.38;98644.66;2085810;28;19924;-48
2022/04/16 01:05:35;;;;;;;;;;;;;;;20.14;57.68;98642.16;2085112;28;19924;-49
2022/04/16 01:06:36;;;;;;;;;;;;;;;20.14;57.65;98633.25;2087401;28;20041;-48
2022/04/16 01:07:48;;;;;;;;;;;;;;;20.14;57.42;98642.16;2088637;28;19932;-50
2022/04/16 01:08:50;;;;;;;;;;;;;;;20.13;57.67;98643.22;2085255;28;21592;-47
2022/04/16 01:09:50;;;;;;;;;;;;;;;20.14;57.46;98642.16;2083778;28;20035;-46
2022/04/16 01:10:52;;;;;;;;;;;;;;;20.14;57.78;98641.34;2087214;28;20452;-50
2022/04/16 01:11:52;;;;;;;;;;;;;;;20.12;57.65;98641.56;2086203;28;19970;-48
2022/04/16 01:12:54;;;;;;;;;;;;;;;20.14;57.72;98639.47;2086526;28;19997;-48
2022/04/16 01:13:55;;;;;;;;;;;;;;;20.11;57.56;98637.22;2087880;28;19924;-49
2022/04/16 01:14:57;;;;;;;;;;;;;;;20.12;57.77;98636.19;2086277;28;19935;-48
2022/04/16 01:15:58;;;;;;;;;;;;;;;20.10;57.90;98635.56;2086655;28;20011;-49
2022/04/16 01:16:59;;;;;;;;;;;;;;;20.11;57.69;98631.00;2087991;28;19955;-50
2022/04/16 01:18:04;;;;;;;;;;;;;;;20.09;57.67;98636.63;2087399;28;20882;-49
2022/04/16 01:19:09;;;;;;;;;;;;;;;20.11;57.27;98626.44;2085668;28;19931;-49
2022/04/16 01:20:10;;;;;;;;;;;;;;;20.11;57.52;98631.81;2083676;28;20303;-48
2022/04/16 01:21:12;;;;;;;;;;;;;;;20.11;57.70;98626.44;2085001;28;20022;-48
2022/04/16 01:22:12;;;;;;;;;;;;;;;20.10;57.21;98635.56;2085572;28;19920;-46
2022/04/16 01:23:16;;;;;;;;;;;;;;;20.11;57.59;98625.63;2082572;28;19929;-49
2022/04/16 01:24:16;;;;;;;;;;;;;;;20.09;57.67;98629.38;2084835;28;20402;-50
2022/04/16 01:25:19;;;;;;;;;;;;;;;20.09;57.71;98628.53;2084008;28;19981;-48
2022/04/16 01:26:20;;;;;;;;;;;;;;;20.10;57.60;98624.78;2087259;28;19951;-48
2022/04/16 01:27:24;;;;;;;;;;;;;;;20.09;57.72;98623.97;2085514;28;19921;-50
2022/04/16 01:28:24;;;;;;;;;;;;;;;20.07;57.79;98622.53;2084916;28;23470;-48
2022/04/16 01:29:26;;;;;;;;;;;;;;;20.07;57.51;98617.97;2085461;28;20864;-47
2022/04/16 01:30:27;;;;;;;;;;;;;;;20.06;57.54;98621.72;2086609;28;19928;-49
2022/04/16 01:31:30;;;;;;;;;;;;;;;20.06;57.39;98621.72;2083026;28;19924;-48
2022/04/16 01:32:32;;;;;;;;;;;;;;;20.06;57.58;98619.03;2086174;28;19920;-49
2022/04/16 01:33:34;;;;;;;;;;;;;;;20.08;57.12;98621.47;2084520;28;19935;-49
2022/04/16 01:34:34;;;;;;;;;;;;;;;20.07;57.33;98619.84;2082560;28;19925;-47
2022/04/16 01:35:36;;;;;;;;;;;;;;;20.06;57.42;98626.28;2086410;28;19924;-49
2022/04/16 01:36:37;;;;;;;;;;;;;;;20.06;57.75;98621.72;2085102;28;20937;-48
2022/04/16 01:37:38;;;;;;;;;;;;;;;20.07;57.68;98619.84;2083227;28;20011;-49
2022/04/16 01:38:40;;;;;;;;;;;;;;;20.06;57.25;98618.19;2082640;28;19920;-49
2022/04/16 01:39:42;;;;;;;;;;;;;;;20.05;57.39;98619.22;2084675;28;20593;-48
2022/04/16 01:40:43;;;;;;;;;;;;;;;20.04;57.45;98621.09;2085529;28;19920;-49
2022/04/16 01:41:44;;;;;;;;;;;;;;;20.04;57.65;98617.59;2083099;28;19924;-49
2022/04/16 01:42:46;;;;;;;;;;;;;;;20.05;57.44;98616.53;2086007;28;19920;-50
2022/04/16 01:43:46;;;;;;;;;;;;;;;20.04;57.60;98621.09;2085185;28;19924;-49
2022/04/16 01:44:48;;;;;;;;;;;;;;;20.04;57.94;98615.72;2087505;28;19928;-51
2022/04/16 01:45:49;;;;;;;;;;;;;;;20.04;57.69;98609.50;2083932;28;19925;-54
2022/04/16 01:46:51;;;;;;;;;;;;;;;20.05;57.69;98617.34;2084225;28;20374;-48
2022/04/16 01:47:52;;;;;;;;;;;;;;;20.04;57.80;98615.72;2082917;28;19931;-50
2022/04/16 01:48:54;;;;;;;;;;;;;;;20.04;57.10;98612.19;2083260;28;20720;-49
2022/04/16 01:49:55;;;;;;;;;;;;;;;20.06;57.42;98612.81;2084840;28;19935;-49
2022/04/16 01:50:56;;;;;;;;;;;;;;;20.05;57.60;98614.66;2083922;28;19960;-49
2022/04/16 01:51:58;;;;;;;;;;;;;;;20.04;57.69;98609.50;2086411;28;19928;-48
2022/04/16 01:52:59;;;;;;;;;;;;;;;20.06;57.55;98620.91;2082828;28;20443;-49
2022/04/16 01:54:01;;;;;;;;;;;;;;;20.04;57.57;98610.31;2081773;28;19928;-50
2022/04/16 01:55:03;;;;;;;;;;;;;;;20.03;57.46;98616.75;2085285;28;19928;-49
2022/04/16 01:56:04;;;;;;;;;;;;;;;20.04;57.33;98613.00;2085044;28;20282;-48
2022/04/16 01:57:05;;;;;;;;;;;;;;;20.03;57.54;98607.84;2086333;28;19966;-48
2022/04/16 01:58:06;;;;;;;;;;;;;;;20.04;57.67;98609.50;2084758;28;19925;-49
2022/04/16 01:59:09;;;;;;;;;;;;;;;20.02;57.02;98604.31;2087016;28;19929;-50
2022/04/16 02:00:12;;;;;;;;;;;;;;;20.04;57.66;98604.13;2085170;28;20365;-46
2022/04/16 02:01:14;;;;;;;;;;;;;;;20.03;57.26;98607.84;2085925;28;20005;-50
2022/04/16 02:02:15;;;;;;;;;;;;;;;20.02;57.33;98611.56;2087935;28;19951;-48
2022/04/16 02:03:19;;;;;;;;;;;;;;;20.02;57.59;98603.50;2089518;28;19966;-48
2022/04/16 02:04:20;;;;;;;;;;;;;;;20.02;57.33;98601.63;2087903;28;19928;-51
2022/04/16 02:05:22;;;;;;;;;;;;;;;20.04;57.44;98609.50;2088504;28;20043;-49
2022/04/16 02:06:23;;;;;;;;;;;;;;;20.02;56.93;98607.00;2089136;28;19920;-49
2022/04/16 02:07:25;;;;;;;;;;;;;;;20.01;57.46;98610.75;2083331;28;19927;-49
2022/04/16 02:08:25;;;;;;;;;;;;;;;20.02;57.67;98607.00;2084599;28;19936;-51
2022/04/16 02:09:28;;;;;;;;;;;;;;;20.02;57.71;98606.19;2086203;28;19927;-50
2022/04/16 02:10:30;;;;;;;;;;;;;;;20.01;57.78;98609.94;2088653;28;20548;-48
2022/04/16 02:11:31;;;;;;;;;;;;;;;20.02;57.68;98603.50;2086735;28;19934;-49
2022/04/16 02:12:32;;;;;;;;;;;;;;;20.02;57.55;98606.19;2086872;28;19931;-48
2022/04/16 02:13:34;;;;;;;;;;;;;;;20.01;57.46;98602.69;2087056;28;19927;-48
2022/04/16 02:14:36;;;;;;;;;;;;;;;20.02;57.60;98609.69;2086549;28;19924;-47
2022/04/16 02:15:38;;;;;;;;;;;;;;;20.01;57.61;98608.06;2083634;28;19924;-49
2022/04/16 02:16:39;;;;;;;;;;;;;;;20.01;57.59;98604.56;2085643;28;19936;-49
2022/04/16 02:17:41;;;;;;;;;;;;;;;20.00;57.29;98603.72;2086515;28;20649;-48
2022/04/16 02:18:41;;;;;;;;;;;;;;;20.01;57.19;98607.25;2086559;28;19924;-46
2022/04/16 02:19:43;;;;;;;;;;;;;;;20.01;57.28;98604.56;2088224;28;19928;-52
2022/04/16 02:20:44;;;;;;;;;;;;;;;20.01;57.64;98604.56;2089408;28;19963;-52
2022/04/16 02:21:47;;;;;;;;;;;;;;;20.01;57.56;98604.56;2085391;28;19935;-52
2022/04/16 02:22:48;;;;;;;;;;;;;;;20.02;57.18;98606.19;2085522;28;19932;-55
2022/04/16 02:23:51;;;;;;;;;;;;;;;20.02;57.42;98604.31;2086629;28;20578;-53
2022/04/16 02:24:53;;;;;;;;;;;;;;;20.00;57.30;98609.13;2085676;28;19924;-47
2022/04/16 02:25:55;;;;;;;;;;;;;;;20.02;57.02;98611.56;2086947;28;19924;-53
2022/04/16 02:26:55;;;;;;;;;;;;;;;20.00;57.29;98613.66;2088224;28;20015;-48
2022/04/16 02:27:57;;;;;;;;;;;;;;;19.99;57.67;98609.31;2087659;28;19932;-50
2022/04/16 02:28:58;;;;;;;;;;;;;;;20.02;57.34;98603.50;2083478;28;19925;-52
2022/04/16 02:30:00;;;;;;;;;;;;;;;20.00;57.64;98613.66;2083887;28;19930;-52
2022/04/16 02:31:01;;;;;;;;;;;;;;;19.98;57.65;98607.66;2085614;28;19935;-55
2022/04/16 02:32:03;;;;;;;;;;;;;;;19.99;57.30;98603.94;2086832;28;19925;-51
2022/04/16 02:33:03;;;;;;;;;;;;;;;19.99;57.64;98607.44;2085731;28;20294;-54
2022/04/16 02:34:07;;;;;;;;;;;;;;;20.00;57.41;98602.88;2086314;28;19980;-50
2022/04/16 02:35:08;;;;;;;;;;;;;;;20.00;57.16;98605.56;2088434;28;20198;-54
2022/04/16 02:36:11;;;;;;;;;;;;;;;20.00;57.04;98609.13;2087161;28;19952;-55
2022/04/16 02:37:12;;;;;;;;;;;;;;;19.99;57.47;98607.44;2085552;28;19928;-50
2022/04/16 02:38:13;;;;;;;;;;;;;;;19.99;57.33;98604.75;2083407;28;19928;-52
2022/04/16 02:39:15;;;;;;;;;;;;;;;19.99;57.24;98601.25;2088050;28;20849;-50
2022/04/16 02:40:18;;;;;;;;;;;;;;;20.01;56.96;98604.56;2076696;28;20055;-50
2022/04/16 02:41:19;;;;;;;;;;;;;;;20.00;57.69;98597.50;2083257;28;20878;-51
2022/04/16 02:42:21;;;;;;;;;;;;;;;19.99;57.41;98602.06;2082682;28;19928;-49
2022/04/16 02:43:23;;;;;;;;;;;;;;;19.98;57.50;98604.97;2085690;28;19921;-52
2022/04/16 02:47:08;;;;;;;;;;;;;;;19.97;57.85;98609.50;2084657;28;19925;-51
2022/04/16 02:48:09;;;;;;;;;;;;;;;19.95;57.69;98600.84;2084066;28;19925;-55
2022/04/16 02:49:12;;;;;;;;;;;;;;;19.95;57.76;98600.03;2085924;28;19925;-51
2022/04/16 02:50:14;;;;;;;;;;;;;;;19.96;58.06;98609.75;2086742;28;19924;-50
2022/04/16 02:51:14;;;;;;;;;;;;;;;19.95;57.58;98597.34;2084693;28;19932;-53
2022/04/16 02:52:16;;;;;;;;;;;;;;;19.94;57.68;98601.88;2084895;28;19935;-49
2022/04/16 02:53:16;;;;;;;;;;;;;;;19.95;57.61;98594.63;2082692;28;19920;-54
2022/04/16 02:54:18;;;;;;;;;;;;;;;19.94;57.69;98598.34;2082680;28;19951;-56
2022/04/16 02:55:20;;;;;;;;;;;;;;;19.95;57.59;98600.03;2088551;28;20377;-52
2022/04/16 02:56:22;;;;;;;;;;;;;;;19.94;57.61;98598.34;2086854;28;19946;-53
2022/04/16 02:57:22;;;;;;;;;;;;;;;19.94;57.46;98609.94;2085216;28;20027;-52
2022/04/16 02:58:24;;;;;;;;;;;;;;;19.96;57.20;98607.88;2084811;28;19936;-53
2022/04/16 02:59:25;;;;;;;;;;;;;;;19.95;57.27;98610.78;2087256;28;20482;-50
2022/04/16 03:00:26;;;;;;;;;;;;;;;19.95;57.26;98603.53;2088100;28;19934;-55
2022/04/16 03:01:27;;;;;;;;;;;;;;;19.95;57.51;98602.72;2085832;28;19927;-53
2022/04/16 03:02:28;;;;;;;;;;;;;;;19.95;57.73;98602.72;2085135;28;20002;-50
2022/04/16 03:03:29;;;;;;;;;;;;;;;19.96;57.60;98612.44;2086323;28;19942;-57
2022/04/16 03:04:30;;;;;;;;;;;;;;;19.94;57.50;98607.25;2084449;28;19935;-51
2022/04/16 03:05:31;;;;;;;;;;;;;;;19.94;57.74;98599.16;2086514;28;19924;-47
2022/04/16 03:06:33;;;;;;;;;;;;;;;19.94;57.58;98609.13;2086305;28;19925;-54
2022/04/16 03:07:33;;;;;;;;;;;;;;;19.94;57.61;98609.13;2084389;28;20552;-53
2022/04/16 03:08:35;;;;;;;;;;;;;;;19.94;57.57;98609.13;2086572;28;19932;-53
2022/04/16 03:09:35;;;;;;;;;;;;;;;19.94;57.78;98614.50;2086382;28;19921;-50
2022/04/16 03:10:39;;;;;;;;;;;;;;;19.94;57.96;98611.81;2087320;28;19964;-55
2022/04/16 03:11:40;;;;;;;;;;;;;;;19.92;57.90;98616.56;2083421;28;20584;-49
2022/04/16 03:12:42;;;;;;;;;;;;;;;19.93;57.89;98612.84;2086125;28;19929;-54
2022/04/16 03:13:44;;;;;;;;;;;;;;;19.92;57.73;98616.56;2084479;28;19928;-53
2022/04/16 03:17:31;;;;;;;;;;;;;;;19.92;57.98;98611.19;2086285;28;20493;-51
2022/04/16 03:18:33;;;;;;;;;;;;;;;19.91;57.99;98609.53;2083668;28;19936;-52
2022/04/16 03:19:34;;;;;;;;;;;;;;;19.92;57.94;98614.72;2084108;28;20402;-55
2022/04/16 03:20:37;;;;;;;;;;;;;;;19.93;58.06;98623.63;2088218;28;20873;-50
2022/04/16 03:21:37;;;;;;;;;;;;;;;19.93;58.00;98618.25;2088775;28;19954;-53
2022/04/16 03:22:39;;;;;;;;;;;;;;;19.93;58.12;98620.94;2084437;28;19925;-49
2022/04/16 03:23:40;;;;;;;;;;;;;;;19.92;57.69;98621.94;2087600;28;19935;-49
2022/04/16 03:24:41;;;;;;;;;;;;;;;19.93;57.92;98626.31;2086069;28;19982;-50
2022/04/16 03:25:43;;;;;;;;;;;;;;;19.92;57.76;98622.81;2087992;28;19978;-54
2022/04/16 03:26:45;;;;;;;;;;;;;;;19.91;57.49;98629.22;2087086;28;19931;-55
2022/04/16 03:27:45;;;;;;;;;;;;;;;19.91;57.90;98625.69;2087447;28;19966;-53
2022/04/16 03:28:47;;;;;;;;;;;;;;;19.92;57.69;98630.88;2087682;28;19924;-52
2022/04/16 03:29:47;;;;;;;;;;;;;;;19.92;57.58;98632.72;2088924;28;19928;-50
2022/04/16 03:30:49;;;;;;;;;;;;;;;19.90;57.96;98630.25;2086012;28;19921;-52
2022/04/16 03:31:50;;;;;;;;;;;;;;;19.91;57.54;98625.69;2087159;28;19998;-54
2022/04/16 03:32:52;;;;;;;;;;;;;;;19.92;57.77;98627.34;2086120;28;19924;-48
2022/04/16 03:33:52;;;;;;;;;;;;;;;19.91;57.70;98628.38;2084770;28;19925;-53
2022/04/16 03:34:54;;;;;;;;;;;;;;;19.91;57.88;98636.47;2085020;28;19932;-50
2022/04/16 03:35:54;;;;;;;;;;;;;;;19.91;57.61;98625.69;2086622;28;21548;-53
2022/04/16 03:36:56;;;;;;;;;;;;;;;19.91;57.95;98628.38;2084272;28;19928;-56
2022/04/16 03:37:57;;;;;;;;;;;;;;;19.90;57.70;98640.22;2088207;28;19924;-50
2022/04/16 03:38:58;;;;;;;;;;;;;;;19.90;57.77;98637.50;2083932;28;20011;-54
2022/04/16 03:39:59;;;;;;;;;;;;;;;19.89;57.99;98633.97;2086816;28;19925;-50
2022/04/16 03:41:02;;;;;;;;;;;;;;;19.90;58.06;98629.44;2086152;28;20015;-53
2022/04/16 03:42:03;;;;;;;;;;;;;;;19.89;58.14;98633.97;2087083;28;19920;-50
2022/04/16 03:43:04;;;;;;;;;;;;;;;19.90;57.97;98640.22;2086875;28;19929;-49
2022/04/16 03:44:05;;;;;;;;;;;;;;;19.90;57.84;98640.22;2084763;28;20280;-50
2022/04/16 03:45:07;;;;;;;;;;;;;;;19.88;57.84;98636.88;2084187;28;19935;-50
2022/04/16 03:46:07;;;;;;;;;;;;;;;19.87;57.87;98636.06;2086599;28;19924;-52
2022/04/16 03:47:10;;;;;;;;;;;;;;;19.87;57.88;98641.47;2087201;28;19921;-52
2022/04/16 03:48:11;;;;;;;;;;;;;;;19.88;57.58;98631.50;2085427;28;19928;-53
2022/04/16 03:49:12;;;;;;;;;;;;;;;19.87;57.79;98641.47;2085335;28;19920;-52
2022/04/16 03:50:13;;;;;;;;;;;;;;;19.88;57.64;98639.59;2086837;28;20290;-52
2022/04/16 03:51:14;;;;;;;;;;;;;;;19.86;57.84;98631.72;2085658;28;19925;-49
2022/04/16 03:52:15;;;;;;;;;;;;;;;19.85;57.69;98638.97;2084401;28;20886;-52
2022/04/16 03:53:16;;;;;;;;;;;;;;;19.86;57.88;98631.72;2087015;28;20371;-50
2022/04/16 04:00:03;;;;;;;;;;;;;;;19.83;57.95;98634.81;2057467;28;19981;-52
2022/04/16 04:01:04;;;;;;;;;;;;;;;19.86;58.07;98634.41;2085084;28;20310;-50
2022/04/16 04:02:06;;;;;;;;;;;;;;;19.84;57.60;98637.31;2087120;28;19924;-55
2022/04/16 04:03:06;;;;;;;;;;;;;;;19.83;57.82;98634.81;2085964;28;20534;-51
2022/04/16 04:04:10;;;;;;;;;;;;;;;19.83;57.56;98630.25;2085581;28;19924;-48
2022/04/16 04:05:11;;;;;;;;;;;;;;;19.83;57.76;98635.66;2084253;28;19928;-50
2022/04/16 04:06:13;;;;;;;;;;;;;;;19.84;57.59;98636.50;2087032;28;20002;-52
2022/04/16 04:07:13;;;;;;;;;;;;;;;19.83;57.69;98630.25;2084279;28;20479;-52
2022/04/16 04:08:15;;;;;;;;;;;;;;;19.82;57.59;98633.19;2083079;28;19928;-52
2022/04/16 04:09:16;;;;;;;;;;;;;;;19.83;57.58;98632.13;2087918;28;20494;-56
2022/04/16 04:10:17;;;;;;;;;;;;;;;19.82;57.95;98630.50;2087567;28;19931;-49
2022/04/16 04:11:19;;;;;;;;;;;;;;;19.81;57.73;98629.66;2086025;28;20535;-51
2022/04/16 04:12:21;;;;;;;;;;;;;;;19.81;57.74;98629.66;2085215;28;20023;-51
2022/04/16 04:13:23;;;;;;;;;;;;;;;19.81;57.59;98629.66;2087149;28;19966;-50
2022/04/16 04:14:24;;;;;;;;;;;;;;;19.81;57.54;98632.34;2084285;28;19925;-53
2022/04/16 04:15:27;;;;;;;;;;;;;;;19.81;57.63;98628.84;2086326;28;19970;-52
2022/04/16 04:16:27;;;;;;;;;;;;;;;19.82;57.90;98634.00;2086108;28;19927;-53
2022/04/16 04:17:29;;;;;;;;;;;;;;;19.80;58.01;98630.69;2087018;28;19966;-49
2022/04/16 04:18:30;;;;;;;;;;;;;;;19.79;57.82;98629.03;2081974;28;19924;-55
2022/04/16 04:19:31;;;;;;;;;;;;;;;19.79;57.43;98634.44;2086038;28;20481;-53
2022/04/16 04:20:32;;;;;;;;;;;;;;;19.80;57.92;98630.69;2085745;28;19975;-49
2022/04/16 04:21:33;;;;;;;;;;;;;;;19.81;57.96;98631.53;2082220;28;20034;-55
2022/04/16 04:22:34;;;;;;;;;;;;;;;19.78;57.61;98630.09;2086873;28;20373;-51
2022/04/16 04:23:35;;;;;;;;;;;;;;;19.79;58.03;98629.03;2087083;28;19928;-52
2022/04/16 04:24:36;;;;;;;;;;;;;;;19.79;57.90;98634.44;2085446;28;20437;-47
2022/04/16 04:25:37;;;;;;;;;;;;;;;19.79;57.39;98639.00;2089491;28;19927;-52
2022/04/16 04:26:38;;;;;;;;;;;;;;;19.80;57.49;98640.63;2086704;28;19973;-49
2022/04/16 04:27:40;;;;;;;;;;;;;;;19.78;57.48;98632.78;2087450;28;19966;-52
2022/04/16 04:28:42;;;;;;;;;;;;;;;19.78;57.52;98643.56;2086639;28;19982;-51
2022/04/16 04:29:42;;;;;;;;;;;;;;;19.79;57.64;98642.50;2086089;28;19928;-53
2022/04/16 04:30:44;;;;;;;;;;;;;;;19.78;57.63;98648.94;2086365;28;20534;-50
2022/04/16 04:31:44;;;;;;;;;;;;;;;19.77;57.70;98641.88;2087670;28;19924;-50
2022/04/16 04:32:46;;;;;;;;;;;;;;;19.78;57.67;98645.38;2084658;28;19931;-53
2022/04/16 04:33:47;;;;;;;;;;;;;;;19.77;57.64;98644.56;2084130;28;19954;-54
2022/04/16 04:34:48;;;;;;;;;;;;;;;19.77;57.78;98646.44;2085910;28;20377;-50
2022/04/16 04:35:51;;;;;;;;;;;;;;;19.77;57.75;98641.06;2085002;28;19928;-56
2022/04/16 04:36:51;;;;;;;;;;;;;;;19.77;57.62;98639.19;2083206;28;19932;-52
2022/04/16 04:37:53;;;;;;;;;;;;;;;19.77;57.79;98643.75;2086257;28;19932;-54
2022/04/16 04:38:54;;;;;;;;;;;;;;;19.76;57.66;98645.63;2084550;28;19928;-53
2022/04/16 04:39:55;;;;;;;;;;;;;;;19.75;57.80;98645.81;2084593;28;19928;-53
2022/04/16 04:40:56;;;;;;;;;;;;;;;19.75;57.78;98643.97;2083255;28;21898;-51
2022/04/16 04:41:57;;;;;;;;;;;;;;;19.75;57.81;98645.81;2084774;28;19927;-50
2022/04/16 04:42:59;;;;;;;;;;;;;;;19.75;57.78;98643.97;2084975;28;19928;-53
2022/04/16 04:44:01;;;;;;;;;;;;;;;19.75;57.70;98643.97;2087906;28;19982;-49
2022/04/16 04:45:06;;;;;;;;;;;;;;;19.77;57.77;98643.75;2084253;28;20531;-56
2022/04/16 04:46:08;;;;;;;;;;;;;;;19.74;57.70;98636.09;2086745;28;21606;-53
2022/04/16 04:47:08;;;;;;;;;;;;;;;19.74;57.85;98636.09;2086039;28;19920;-51
2022/04/16 04:48:10;;;;;;;;;;;;;;;19.75;57.62;98643.13;2084927;28;19967;-52
2022/04/16 04:49:11;;;;;;;;;;;;;;;19.73;57.57;98640.66;2086259;28;19940;-51
2022/04/16 04:50:12;;;;;;;;;;;;;;;19.73;57.42;98629.06;2087514;28;20333;-49
2022/04/16 04:51:13;;;;;;;;;;;;;;;19.74;57.41;98636.09;2083059;28;19978;-52
2022/04/16 04:52:20;;;;;;;;;;;;;;;19.73;57.49;98643.34;2085542;28;20355;-51
2022/04/16 04:53:21;;;;;;;;;;;;;;;19.73;57.73;98639.84;2082128;28;19928;-50
2022/04/16 04:54:22;;;;;;;;;;;;;;;19.73;57.39;98639.84;2086497;28;20978;-53
2022/04/16 04:55:23;;;;;;;;;;;;;;;19.73;57.82;98648.72;2087186;28;19924;-52
2022/04/16 04:56:24;;;;;;;;;;;;;;;19.73;57.64;98645.22;2087573;28;20492;-52
2022/04/16 04:57:25;;;;;;;;;;;;;;;19.71;57.47;98648.09;2087017;28;19935;-52
2022/04/16 04:58:28;;;;;;;;;;;;;;;19.72;57.66;98643.53;2086722;28;19924;-51
2022/04/16 04:59:29;;;;;;;;;;;;;;;19.71;57.47;98653.50;2085583;28;20555;-58
2022/04/16 05:00:30;;;;;;;;;;;;;;;19.72;57.75;98649.75;2084625;28;20027;-54
2022/04/16 05:01:31;;;;;;;;;;;;;;;19.72;57.66;98644.38;2085556;28;19932;-55
2022/04/16 05:02:39;;;;;;;;;;;;;;;19.72;57.71;98649.75;2087268;28;19931;-50
2022/04/16 05:03:40;;;;;;;;;;;;;;;19.72;57.50;98643.53;2087886;28;19967;-60
2022/04/16 05:04:42;;;;;;;;;;;;;;;19.72;57.41;98648.94;2083809;28;19928;-53
2022/04/16 05:05:43;;;;;;;;;;;;;;;19.71;57.65;98650.81;2088291;28;20302;-54
2022/04/16 05:06:44;;;;;;;;;;;;;;;19.71;57.68;98647.28;2084743;28;19928;-54
2022/04/16 05:07:45;;;;;;;;;;;;;;;19.71;57.49;98653.50;2086705;28;19925;-53
2022/04/16 05:08:46;;;;;;;;;;;;;;;19.71;57.68;98650.81;2086537;28;20018;-52
2022/04/16 05:09:47;;;;;;;;;;;;;;;19.71;57.72;98641.91;2087024;28;19920;-49
2022/04/16 05:10:49;;;;;;;;;;;;;;;19.70;57.39;98651.84;2085426;28;20272;-53
2022/04/16 05:11:49;;;;;;;;;;;;;;;19.70;57.62;98642.97;2083539;28;20634;-48
2022/04/16 05:12:51;;;;;;;;;;;;;;;19.70;57.49;98651.84;2084317;28;20496;-50
2022/04/16 05:13:54;;;;;;;;;;;;;;;19.70;57.76;98651.84;2082905;28;19924;-51
2022/04/16 05:14:54;;;;;;;;;;;;;;;19.69;57.59;98655.56;2083998;28;20273;-49
2022/04/16 05:15:56;;;;;;;;;;;;;;;19.69;57.79;98649.34;2084685;28;19924;-48
2022/04/16 05:16:56;;;;;;;;;;;;;;;19.69;57.73;98652.88;2086278;28;20560;-53
2022/04/16 05:17:58;;;;;;;;;;;;;;;19.68;57.60;98645.84;2085614;28;19928;-52
2022/04/16 05:18:59;;;;;;;;;;;;;;;19.69;57.69;98644.78;2084737;28;19921;-50
2022/04/16 05:20:03;;;;;;;;;;;;;;;19.69;57.76;98650.19;2086686;28;19928;-50
2022/04/16 05:21:04;;;;;;;;;;;;;;;19.68;57.59;98642.34;2080612;28;19928;-49
2022/04/16 05:22:05;;;;;;;;;;;;;;;19.68;57.67;98653.91;2083842;28;19927;-52
2022/04/16 05:23:06;;;;;;;;;;;;;;;19.68;57.49;98647.72;2085004;28;20031;-49
2022/04/16 05:24:07;;;;;;;;;;;;;;;19.69;57.58;98655.56;2087776;28;19947;-49
2022/04/16 05:25:09;;;;;;;;;;;;;;;19.68;57.45;98647.72;2082740;28;19920;-51
2022/04/16 05:26:09;;;;;;;;;;;;;;;19.67;57.73;98651.41;2083508;28;19928;-53
2022/04/16 05:27:11;;;;;;;;;;;;;;;19.66;57.54;98650.59;2086301;28;19924;-50
2022/04/16 05:28:12;;;;;;;;;;;;;;;19.66;57.81;98653.28;2087784;28;19935;-52
2022/04/16 05:29:14;;;;;;;;;;;;;;;19.66;57.86;98653.28;2084961;28;20492;-50
2022/04/16 05:30:22;;;;;;;;;;;;;;;19.66;57.36;98655.97;2082410;28;20805;-51
2022/04/16 05:31:26;;;;;;;;;;;;;;;19.66;57.62;98653.28;2084162;28;19924;-48
2022/04/16 05:32:31;;;;;;;;;;;;;;;19.66;57.53;98660.53;2085501;28;19974;-49